Time;durP1;ratioP1;P1;durP2;ratioP2;P2;SDS_P1;SDS_P2;PMS_P1;PMS_P2;Temp;Humidity;BMP_temperature;BMP_pressure;BME280_temperature;BME280_humidity;BME280_pressure;Samples;Min_cycle;Max_cycle;Signal;HPM_P1;HPM_P2
2023/02/10 00:00:13;;;;;;;38.80;27.80;;;0.30;99.90;;;;;;5013039;28;20676;-74
2023/02/10 00:02:39;;;;;;;39.37;27.17;;;0.40;99.90;;;;;;5013016;28;20187;-75
2023/02/10 00:05:05;;;;;;;42.37;29.13;;;0.50;99.90;;;;;;5013561;28;20978;-75
2023/02/10 00:07:30;;;;;;;40.33;27.27;;;0.40;99.90;;;;;;5015394;28;20261;-74
2023/02/10 00:09:56;;;;;;;40.43;26.83;;;0.30;99.90;;;;;;5016003;28;20402;-74
2023/02/10 00:12:21;;;;;;;38.67;27.30;;;0.30;99.90;;;;;;5015261;28;20614;-74
2023/02/10 00:14:47;;;;;;;39.10;28.43;;;0.30;99.90;;;;;;5022182;28;20205;-74
2023/02/10 00:17:14;;;;;;;37.80;26.23;;;0.30;99.90;;;;;;5024496;28;20178;-74
2023/02/10 00:19:40;;;;;;;41.30;27.77;;;0.40;99.90;;;;;;5016743;28;20181;-74
2023/02/10 00:22:06;;;;;;;38.87;26.27;;;0.60;99.90;;;;;;5013103;28;20499;-73
2023/02/10 00:24:31;;;;;;;37.40;28.10;;;0.60;99.90;;;;;;5013844;28;20194;-74
2023/02/10 00:26:57;;;;;;;39.30;25.93;;;0.60;99.90;;;;;;5014064;28;20163;-73
2023/02/10 00:29:22;;;;;;;37.27;25.43;;;0.70;99.90;;;;;;5014011;28;20169;-74
2023/02/10 00:31:48;;;;;;;37.60;26.90;;;0.60;99.90;;;;;;5014143;28;20628;-74
2023/02/10 00:34:16;;;;;;;36.97;26.30;;;0.50;99.90;;;;;;5013762;28;20281;-74
2023/02/10 00:36:43;;;;;;;38.87;26.83;;;0.40;99.90;;;;;;5012243;28;20266;-74
2023/02/10 00:39:13;;;;;;;35.73;25.83;;;0.40;99.90;;;;;;5013681;28;20448;-74
2023/02/10 00:41:39;;;;;;;33.17;24.20;;;0.50;99.90;;;;;;5012211;28;20425;-74
2023/02/10 00:44:05;;;;;;;33.33;25.37;;;0.50;99.90;;;;;;5012173;28;20550;-74
2023/02/10 00:46:30;;;;;;;38.83;25.67;;;0.60;99.90;;;;;;5013531;28;20485;-74
2023/02/10 00:48:56;;;;;;;41.50;27.47;;;0.60;99.90;;;;;;5013415;28;20174;-73
2023/02/10 00:51:21;;;;;;;38.30;26.43;;;0.50;99.90;;;;;;5013235;28;20521;-74
2023/02/10 00:53:49;;;;;;;36.87;26.27;;;0.40;99.90;;;;;;5012962;28;20703;-74
2023/02/10 00:56:16;;;;;;;43.37;28.53;;;0.20;99.90;;;;;;5011802;28;20166;-74
2023/02/10 00:58:41;;;;;;;41.93;28.73;;;0.20;99.90;;;;;;5012626;28;20776;-74
2023/02/10 01:01:07;;;;;;;40.80;28.50;;;0.20;99.90;;;;;;5011598;28;20420;-74
2023/02/10 01:03:33;;;;;;;35.43;26.50;;;0.20;99.90;;;;;;5013189;28;20173;-74
2023/02/10 01:05:59;;;;;;;38.80;27.83;;;0.30;99.90;;;;;;5013611;28;20195;-74
2023/02/10 01:08:25;;;;;;;47.23;29.63;;;0.30;99.90;;;;;;5013584;28;20413;-75
2023/02/10 01:10:58;;;;;;;40.60;27.20;;;0.40;99.90;;;;;;5013355;28;20166;-74
2023/02/10 01:13:24;;;;;;;35.57;26.13;;;0.30;99.90;;;;;;5012868;28;20579;-74
2023/02/10 01:15:50;;;;;;;45.47;28.47;;;0.20;99.90;;;;;;5011330;28;20426;-74
2023/02/10 01:18:15;;;;;;;43.07;27.70;;;0.20;99.90;;;;;;5013346;28;20189;-74
2023/02/10 01:20:42;;;;;;;41.77;28.17;;;0.00;99.90;;;;;;5013296;28;20174;-74
2023/02/10 01:23:08;;;;;;;45.63;28.73;;;-0.20;99.90;;;;;;5013522;28;20169;-74
2023/02/10 01:25:35;;;;;;;36.97;25.37;;;-0.20;99.90;;;;;;5012993;28;20455;-74
2023/02/10 01:28:01;;;;;;;45.13;29.47;;;-0.20;99.90;;;;;;5012654;28;20407;-74
2023/02/10 01:30:27;;;;;;;37.80;27.37;;;-0.30;99.90;;;;;;5013165;28;20417;-74
2023/02/10 01:32:53;;;;;;;48.60;29.27;;;-0.20;99.90;;;;;;5012954;28;20407;-74
2023/02/10 01:35:19;;;;;;;44.10;29.87;;;-0.30;99.90;;;;;;5012937;28;20192;-75
2023/02/10 01:37:45;;;;;;;39.50;29.30;;;0.00;99.90;;;;;;5012790;28;20421;-75
2023/02/10 01:40:10;;;;;;;49.60;31.23;;;0.10;99.90;;;;;;5011411;28;20252;-74
2023/02/10 01:42:38;;;;;;;45.80;31.23;;;0.20;99.90;;;;;;5011805;28;20168;-74
2023/02/10 01:45:18;;;;;;;42.23;28.90;;;0.30;99.90;;;;;;5010451;28;20455;-74
2023/02/10 01:47:46;;;;;;;46.60;30.67;;;0.30;99.90;;;;;;5013003;28;20388;-73
2023/02/10 01:50:12;;;;;;;44.00;30.10;;;0.10;99.90;;;;;;5012143;28;20427;-74
2023/02/10 01:52:39;;;;;;;39.30;26.80;;;0.20;99.90;;;;;;5014125;28;20750;-73
2023/02/10 01:55:08;;;;;;;39.33;25.53;;;0.10;99.90;;;;;;5016408;28;20455;-73
2023/02/10 01:57:35;;;;;;;43.17;29.70;;;0.10;99.90;;;;;;5015153;28;20415;-73
2023/02/10 02:00:03;;;;;;;43.93;29.50;;;0.20;99.90;;;;;;5016312;28;20424;-73
2023/02/10 02:02:29;;;;;;;37.53;27.00;;;0.20;99.90;;;;;;5016984;28;20471;-74
2023/02/10 02:04:59;;;;;;;40.67;27.80;;;0.20;99.90;;;;;;5013490;28;20461;-74
2023/02/10 02:07:29;;;;;;;40.47;27.17;;;0.20;99.90;;;;;;5015174;28;20257;-74
2023/02/10 02:09:56;;;;;;;44.97;28.67;;;0.30;99.90;;;;;;5016401;28;20441;-74
2023/02/10 02:12:42;;;;;;;35.00;26.30;;;0.30;99.90;;;;;;5016290;28;20406;-75
2023/02/10 02:15:44;;;;;;;44.97;28.63;;;0.30;99.90;;;;;;5016008;28;20469;-73
2023/02/10 02:18:16;;;;;;;39.03;27.10;;;0.20;99.90;;;;;;4964116;28;20440;-73
2023/02/10 02:20:56;;;;;;;37.57;26.63;;;0.00;99.90;;;;;;4996165;28;20391;-75
2023/02/10 02:24:01;;;;;;;36.30;26.33;;;0.00;99.90;;;;;;4994473;28;20422;-74
2023/02/10 02:26:47;;;;;;;44.10;28.37;;;0.10;99.90;;;;;;4995917;28;20414;-74
2023/02/10 02:29:51;;;;;;;41.20;27.20;;;0.00;99.90;;;;;;4996485;28;20424;-74
2023/02/10 02:32:24;;;;;;;45.07;28.53;;;-0.10;99.90;;;;;;4959711;28;20904;-74
2023/02/10 02:35:03;;;;;;;48.70;28.37;;;-0.20;99.90;;;;;;4996253;28;20423;-75
2023/02/10 02:37:35;;;;;;;46.53;28.90;;;-0.20;99.90;;;;;;4996107;28;20384;-72
2023/02/10 02:40:02;;;;;;;42.80;28.10;;;-0.20;99.90;;;;;;4996025;28;20909;-74
2023/02/10 02:42:32;;;;;;;36.83;26.00;;;-0.30;99.90;;;;;;4996047;28;20402;-74
2023/02/10 02:45:00;;;;;;;46.97;30.30;;;-0.30;99.90;;;;;;4995575;28;20450;-74
2023/02/10 02:47:47;;;;;;;47.90;30.90;;;-0.40;99.90;;;;;;5008890;28;20945;-74
2023/02/10 02:50:22;;;;;;;39.70;28.87;;;-0.40;99.90;;;;;;5015241;28;20909;-74
2023/02/10 02:53:11;;;;;;;43.07;28.37;;;-0.40;99.90;;;;;;5015389;28;20376;-74
2023/02/10 02:55:53;;;;;;;47.33;30.73;;;-0.40;99.90;;;;;;5014947;28;20973;-74
2023/02/10 02:58:35;;;;;;;38.13;26.43;;;-0.40;99.90;;;;;;5015061;28;20417;-75
2023/02/10 03:01:07;;;;;;;41.70;29.27;;;-0.40;99.90;;;;;;5014518;28;20389;-75
2023/02/10 03:03:34;;;;;;;45.17;30.50;;;-0.50;99.90;;;;;;5013978;28;20880;-74
2023/02/10 03:06:01;;;;;;;41.50;27.30;;;-0.40;99.90;;;;;;5013578;28;20932;-74
2023/02/10 03:08:29;;;;;;;43.80;30.70;;;-0.40;99.90;;;;;;5014901;28;20399;-74
2023/02/10 03:10:55;;;;;;;43.20;30.10;;;-0.40;99.90;;;;;;5014878;28;20402;-75
2023/02/10 03:13:20;;;;;;;38.30;26.07;;;-0.30;99.90;;;;;;5015616;28;20477;-75
2023/02/10 03:15:46;;;;;;;40.50;27.63;;;-0.30;99.90;;;;;;5015893;28;20177;-75
2023/02/10 03:18:11;;;;;;;45.50;31.07;;;-0.40;99.90;;;;;;5015320;28;20172;-74
2023/02/10 03:20:38;;;;;;;42.63;29.63;;;-0.40;99.90;;;;;;5015087;28;20179;-74
2023/02/10 03:23:04;;;;;;;46.33;29.70;;;-0.50;99.90;;;;;;5015527;28;20178;-74
2023/02/10 03:25:30;;;;;;;47.10;29.10;;;-0.40;99.90;;;;;;5013730;28;20461;-74
2023/02/10 03:27:55;;;;;;;43.47;28.67;;;-0.50;99.90;;;;;;5015325;28;20636;-74
2023/02/10 03:30:21;;;;;;;46.37;29.30;;;-0.50;99.90;;;;;;5015377;28;20173;-74
2023/02/10 03:32:48;;;;;;;40.77;28.27;;;-0.60;99.90;;;;;;5015462;28;20601;-74
2023/02/10 03:35:14;;;;;;;43.20;29.50;;;-0.60;99.90;;;;;;5014351;28;20250;-75
2023/02/10 03:37:40;;;;;;;43.90;29.33;;;-0.60;99.90;;;;;;5014983;28;20507;-74
2023/02/10 03:40:06;;;;;;;43.03;28.87;;;-0.60;99.90;;;;;;5013496;28;20430;-75
2023/02/10 03:42:31;;;;;;;39.23;28.13;;;-0.60;99.90;;;;;;5013502;28;20760;-74
2023/02/10 03:44:57;;;;;;;39.90;30.57;;;-0.60;99.90;;;;;;5014408;28;20444;-74
2023/02/10 03:47:22;;;;;;;39.13;27.90;;;-0.50;99.90;;;;;;5013246;28;20662;-74
2023/02/10 03:49:48;;;;;;;38.87;26.53;;;-0.40;99.90;;;;;;5014168;28;20364;-74
2023/02/10 03:52:14;;;;;;;44.30;29.10;;;-0.40;99.90;;;;;;5014348;28;20533;-74
2023/02/10 03:54:39;;;;;;;40.67;29.00;;;-0.40;99.90;;;;;;5014935;28;20258;-74
2023/02/10 03:57:05;;;;;;;41.97;28.23;;;-0.40;99.90;;;;;;5032261;28;20176;-75
2023/02/10 03:59:31;;;;;;;42.57;28.00;;;-0.60;99.90;;;;;;5033370;28;20643;-74
2023/02/10 04:01:57;;;;;;;41.13;28.27;;;-0.70;99.90;;;;;;5033233;28;20474;-74
2023/02/10 04:04:22;;;;;;;43.93;30.20;;;-0.60;99.90;;;;;;5025802;28;20456;-74
2023/02/10 04:06:48;;;;;;;42.40;28.70;;;-0.60;99.90;;;;;;5013971;28;20219;-74
2023/02/10 04:09:13;;;;;;;39.73;28.60;;;-0.70;99.90;;;;;;5015237;28;20254;-74
2023/02/10 04:11:39;;;;;;;42.07;26.43;;;-0.70;99.90;;;;;;5014259;28;20179;-74
2023/02/10 04:14:04;;;;;;;41.00;27.70;;;-0.80;99.90;;;;;;5013878;28;20221;-74
2023/02/10 04:16:31;;;;;;;37.43;26.53;;;-0.80;99.90;;;;;;5014282;28;20312;-74
2023/02/10 04:18:57;;;;;;;42.97;28.47;;;-0.80;99.90;;;;;;5014426;28;20173;-74
2023/02/10 04:21:24;;;;;;;42.50;27.60;;;-0.70;99.90;;;;;;5014749;28;20407;-77
2023/02/10 04:23:50;;;;;;;38.50;27.30;;;-0.70;99.90;;;;;;5014431;28;20181;-74
2023/02/10 04:26:15;;;;;;;36.87;25.57;;;-0.70;99.90;;;;;;5013937;28;20473;-74
2023/02/10 04:28:41;;;;;;;41.57;28.10;;;-0.60;99.90;;;;;;5013655;28;20408;-74
2023/02/10 04:31:07;;;;;;;35.33;25.00;;;-0.60;99.90;;;;;;5013732;28;20253;-74
2023/02/10 04:33:33;;;;;;;35.27;25.43;;;-0.60;99.90;;;;;;5013571;28;20652;-74
2023/02/10 04:36:02;;;;;;;42.20;26.87;;;-0.60;99.90;;;;;;5013843;28;20764;-72
2023/02/10 04:38:28;;;;;;;48.50;25.63;;;-0.60;99.90;;;;;;5013812;28;20412;-72
2023/02/10 04:40:53;;;;;;;35.50;24.50;;;-0.60;99.90;;;;;;5013757;28;20815;-72
2023/02/10 04:43:19;;;;;;;43.40;28.57;;;-0.60;99.90;;;;;;5013889;28;20200;-72
2023/02/10 04:45:44;;;;;;;39.10;26.77;;;-0.60;99.90;;;;;;5013425;28;20725;-72
2023/02/10 04:48:10;;;;;;;34.77;23.97;;;-0.70;99.90;;;;;;5013634;28;20215;-72
2023/02/10 04:50:36;;;;;;;38.97;26.80;;;-0.70;99.90;;;;;;5013221;28;20169;-73
2023/02/10 04:53:02;;;;;;;43.20;26.90;;;-0.70;99.90;;;;;;5013609;28;20190;-72
2023/02/10 04:55:28;;;;;;;39.83;27.23;;;-0.80;99.90;;;;;;5013417;28;20447;-72
2023/02/10 04:57:53;;;;;;;39.47;26.13;;;-0.80;99.90;;;;;;5011619;28;20199;-73
2023/02/10 05:00:19;;;;;;;41.13;26.43;;;-0.80;99.90;;;;;;5013264;28;20172;-72
2023/02/10 05:02:44;;;;;;;37.67;26.70;;;-0.80;99.90;;;;;;5012198;28;20266;-72
2023/02/10 05:05:11;;;;;;;37.17;26.27;;;-0.80;99.90;;;;;;5011875;28;20228;-72
2023/02/10 05:07:37;;;;;;;35.67;24.90;;;-0.70;99.90;;;;;;5011507;28;20177;-70
2023/02/10 05:10:03;;;;;;;36.03;25.73;;;-0.70;99.90;;;;;;5013359;28;20412;-71
2023/02/10 05:12:28;;;;;;;38.83;26.00;;;-0.80;99.90;;;;;;5011302;28;20187;-72
2023/02/10 05:14:54;;;;;;;33.77;23.33;;;-0.80;99.90;;;;;;5013853;28;20419;-72
2023/02/10 05:17:20;;;;;;;34.10;22.67;;;-0.80;99.90;;;;;;5013016;28;20174;-71
2023/02/10 05:19:45;;;;;;;38.07;23.43;;;-0.80;99.90;;;;;;5013040;28;20346;-72
2023/02/10 05:22:11;;;;;;;35.93;24.27;;;-0.80;99.90;;;;;;5012929;28;20229;-72
2023/02/10 05:24:36;;;;;;;36.63;25.10;;;-0.80;99.90;;;;;;5012700;28;20192;-71
2023/02/10 05:27:02;;;;;;;31.97;22.10;;;-0.90;99.90;;;;;;5012425;28;20600;-72
2023/02/10 05:29:27;;;;;;;33.93;23.80;;;-1.00;99.90;;;;;;5015444;28;20171;-72
2023/02/10 05:31:54;;;;;;;32.07;22.57;;;-1.00;99.90;;;;;;5016413;28;20172;-72
2023/02/10 05:34:19;;;;;;;32.73;24.80;;;-0.90;99.90;;;;;;5015379;28;20655;-71
2023/02/10 05:36:45;;;;;;;33.53;22.70;;;-1.00;99.90;;;;;;5016571;28;20456;-72
2023/02/10 05:39:24;;;;;;;37.57;25.80;;;-0.90;99.90;;;;;;5016409;28;20615;-72
2023/02/10 05:41:51;;;;;;;34.53;23.10;;;-0.90;99.90;;;;;;5016241;28;20167;-72
2023/02/10 05:44:16;;;;;;;34.37;23.70;;;-0.90;99.90;;;;;;5015050;28;20458;-71
2023/02/10 05:46:42;;;;;;;32.17;21.43;;;-0.90;99.90;;;;;;5016026;28;20806;-71
2023/02/10 05:49:07;;;;;;;39.77;25.43;;;-0.90;99.90;;;;;;5015027;28;20172;-72
2023/02/10 05:51:33;;;;;;;36.27;24.40;;;-1.00;99.90;;;;;;5016488;28;20172;-72
2023/02/10 05:53:59;;;;;;;33.10;23.63;;;-1.00;99.90;;;;;;5043165;22;20781;-70
2023/02/10 05:56:24;;;;;;;34.43;24.07;;;-1.10;99.90;;;;;;5054809;28;20568;-70
2023/02/10 05:58:50;;;;;;;35.60;24.17;;;-1.20;99.90;;;;;;5056084;28;20184;-69
2023/02/10 06:01:15;;;;;;;38.10;24.53;;;-1.10;99.90;;;;;;5055145;28;20167;-69
2023/02/10 06:03:41;;;;;;;37.73;23.70;;;-1.20;99.90;;;;;;5055878;28;20246;-69
2023/02/10 06:06:06;;;;;;;28.30;22.67;;;-1.10;99.90;;;;;;5058796;28;20199;-69
2023/02/10 06:08:32;;;;;;;32.77;23.00;;;-1.00;99.90;;;;;;5056169;28;20237;-70
2023/02/10 06:10:58;;;;;;;43.63;26.87;;;-1.00;99.90;;;;;;5055568;28;20174;-70
2023/02/10 06:13:23;;;;;;;37.50;24.80;;;-1.10;99.90;;;;;;5055543;28;20216;-70
2023/02/10 06:15:49;;;;;;;29.80;22.30;;;-1.10;99.90;;;;;;5053660;28;20225;-70
2023/02/10 06:18:14;;;;;;;32.87;23.50;;;-1.10;99.90;;;;;;5055568;28;20171;-70
2023/02/10 06:20:40;;;;;;;39.70;25.00;;;-1.00;99.90;;;;;;5055870;28;20618;-70
2023/02/10 06:23:06;;;;;;;33.70;22.47;;;-1.00;99.90;;;;;;5056516;28;20654;-69
2023/02/10 06:25:33;;;;;;;31.60;23.33;;;-1.10;99.90;;;;;;5055971;28;20571;-70
2023/02/10 06:27:58;;;;;;;37.00;25.80;;;-1.10;99.90;;;;;;5054254;28;20409;-70
2023/02/10 06:30:24;;;;;;;34.57;24.17;;;-1.10;99.90;;;;;;5056392;28;20393;-69
2023/02/10 06:32:50;;;;;;;33.53;24.00;;;-1.10;99.90;;;;;;5055399;28;20167;-70
2023/02/10 06:35:15;;;;;;;36.70;25.80;;;-1.20;99.90;;;;;;5054970;28;20186;-70
2023/02/10 06:37:41;;;;;;;36.30;24.20;;;-1.20;99.90;;;;;;5054906;28;20167;-69
2023/02/10 06:40:07;;;;;;;32.63;22.97;;;-1.10;99.90;;;;;;5054851;28;20175;-69
2023/02/10 06:42:33;;;;;;;33.63;24.40;;;-1.00;99.90;;;;;;5055265;28;20220;-70
2023/02/10 06:44:58;;;;;;;29.63;22.70;;;-1.00;99.90;;;;;;5055200;28;20457;-71
2023/02/10 06:47:24;;;;;;;34.33;24.30;;;-1.10;99.90;;;;;;5056193;28;20176;-70
2023/02/10 06:49:49;;;;;;;37.13;24.80;;;-1.10;99.90;;;;;;5055735;28;20196;-70
2023/02/10 06:52:15;;;;;;;32.40;22.83;;;-1.10;99.90;;;;;;5054898;28;20538;-69
2023/02/10 06:54:41;;;;;;;36.27;25.10;;;-1.10;99.90;;;;;;5054780;28;20351;-70
2023/02/10 06:57:07;;;;;;;32.83;23.80;;;-1.10;99.90;;;;;;5055377;28;20171;-69
2023/02/10 06:59:33;;;;;;;34.30;22.60;;;-1.20;99.90;;;;;;5054938;28;20167;-70
2023/02/10 07:02:00;;;;;;;32.07;22.97;;;-1.20;99.90;;;;;;5054649;28;20417;-70
2023/02/10 07:04:29;;;;;;;35.40;23.70;;;-1.20;99.90;;;;;;5053386;28;20498;-70
2023/02/10 07:06:56;;;;;;;35.53;23.93;;;-1.10;99.90;;;;;;5053393;28;20500;-70
2023/02/10 07:09:22;;;;;;;35.83;23.47;;;-1.10;99.90;;;;;;5054591;28;20401;-69
2023/02/10 07:11:48;;;;;;;36.60;23.00;;;-1.10;99.90;;;;;;5053658;28;20417;-70
2023/02/10 07:14:14;;;;;;;37.87;26.00;;;-1.00;99.90;;;;;;5074267;28;20432;-70
2023/02/10 07:16:40;;;;;;;35.53;22.97;;;-1.10;99.90;;;;;;5074192;28;20811;-69
2023/02/10 07:19:05;;;;;;;36.80;24.63;;;-1.10;99.90;;;;;;5073734;28;20170;-71
2023/02/10 07:21:31;;;;;;;29.50;21.80;;;-1.10;99.90;;;;;;5053966;28;20512;-69
2023/02/10 07:23:57;;;;;;;33.63;24.10;;;-1.00;99.90;;;;;;5053096;28;20266;-69
2023/02/10 07:26:23;;;;;;;35.70;24.50;;;-1.00;99.90;;;;;;5054287;28;20304;-70
2023/02/10 07:28:48;;;;;;;35.20;23.33;;;-0.90;99.90;;;;;;5054234;28;20212;-69
2023/02/10 07:31:14;;;;;;;34.50;23.80;;;-0.90;99.90;;;;;;5054410;28;20406;-70
2023/02/10 07:33:40;;;;;;;36.50;25.47;;;-0.80;99.90;;;;;;5054679;28;20163;-70
2023/02/10 07:36:07;;;;;;;35.80;23.73;;;-0.80;99.90;;;;;;5053142;28;20179;-70
2023/02/10 07:38:33;;;;;;;35.17;26.13;;;-0.70;99.90;;;;;;5053043;28;20899;-70
2023/02/10 07:40:59;;;;;;;30.40;22.50;;;-0.60;99.90;;;;;;5054150;28;20407;-70
2023/02/10 07:43:24;;;;;;;29.13;21.00;;;-0.40;99.90;;;;;;5055452;28;20406;-70
2023/02/10 07:45:50;;;;;;;33.40;22.50;;;-0.40;99.90;;;;;;5054177;28;20716;-70
2023/02/10 07:48:16;;;;;;;34.87;25.30;;;-0.30;99.90;;;;;;5055220;28;20201;-69
2023/02/10 07:50:42;;;;;;;31.10;23.03;;;-0.30;99.90;;;;;;5074125;28;20190;-69
2023/02/10 07:53:08;;;;;;;34.87;24.57;;;-0.20;99.90;;;;;;5073581;28;20430;-70
2023/02/10 07:55:34;;;;;;;33.87;23.50;;;-0.20;99.90;;;;;;5073710;28;20523;-70
2023/02/10 07:57:59;;;;;;;36.83;25.07;;;-0.10;99.90;;;;;;5073753;28;20668;-70
2023/02/10 08:00:25;;;;;;;33.37;25.80;;;-0.10;99.90;;;;;;5074074;28;20168;-69
2023/02/10 08:02:50;;;;;;;31.23;22.20;;;0.00;99.90;;;;;;5074887;28;20167;-69
2023/02/10 08:05:16;;;;;;;31.00;23.47;;;0.10;99.90;;;;;;5073702;28;20199;-70
2023/02/10 08:07:42;;;;;;;30.00;23.60;;;0.00;99.90;;;;;;5071162;28;20232;-71
2023/02/10 08:10:12;;;;;;;34.63;23.70;;;0.10;99.90;;;;;;5055129;28;20630;-70
2023/02/10 08:12:37;;;;;;;32.70;26.40;;;0.30;99.90;;;;;;5054275;28;20408;-69
2023/02/10 08:15:04;;;;;;;36.10;26.60;;;0.50;99.90;;;;;;5053740;28;20331;-69
2023/02/10 08:17:29;;;;;;;32.53;25.60;;;0.60;99.90;;;;;;5053695;28;20173;-69
2023/02/10 08:19:55;;;;;;;30.23;23.40;;;0.80;99.90;;;;;;5052712;28;20455;-70
2023/02/10 08:22:20;;;;;;;32.30;23.43;;;0.80;99.90;;;;;;5054893;28;20271;-70
2023/02/10 08:24:46;;;;;;;28.83;22.57;;;0.80;99.90;;;;;;5053502;28;20693;-68
2023/02/10 08:27:11;;;;;;;32.27;24.97;;;0.80;99.90;;;;;;5053568;28;20592;-67
2023/02/10 08:29:37;;;;;;;32.20;23.83;;;0.80;99.90;;;;;;5053309;28;20170;-68
2023/02/10 08:32:03;;;;;;;35.33;24.60;;;0.90;99.90;;;;;;5053341;28;20176;-68
2023/02/10 08:34:28;;;;;;;29.93;22.27;;;1.00;99.90;;;;;;5053168;28;20186;-68
2023/02/10 08:36:54;;;;;;;30.70;23.07;;;1.00;99.90;;;;;;5052641;28;20401;-68
2023/02/10 08:39:20;;;;;;;32.80;23.07;;;1.10;99.90;;;;;;5053159;28;20245;-69
2023/02/10 08:41:45;;;;;;;33.23;24.67;;;1.20;99.90;;;;;;5053320;28;20204;-71
2023/02/10 08:44:14;;;;;;;32.87;23.33;;;1.30;99.90;;;;;;5052864;28;20204;-71
2023/02/10 08:46:40;;;;;;;32.23;23.83;;;1.40;99.90;;;;;;5053189;28;20185;-70
2023/02/10 08:49:06;;;;;;;36.00;25.03;;;1.50;99.90;;;;;;5052371;28;20460;-70
2023/02/10 08:51:32;;;;;;;37.53;24.07;;;1.60;99.90;;;;;;5052780;28;20417;-68
2023/02/10 08:54:00;;;;;;;31.73;24.83;;;1.60;99.90;;;;;;5052835;28;20163;-69
2023/02/10 08:56:26;;;;;;;31.63;23.60;;;1.80;99.90;;;;;;5055436;28;20422;-69
2023/02/10 08:58:53;;;;;;;34.03;24.17;;;1.80;99.90;;;;;;5054701;28;20895;-69
2023/02/10 09:01:22;;;;;;;34.40;25.53;;;1.80;99.90;;;;;;5052275;28;20165;-70
2023/02/10 09:03:48;;;;;;;37.93;26.60;;;1.90;99.90;;;;;;5052401;28;20402;-70
2023/02/10 09:06:20;;;;;;;35.40;24.33;;;2.00;99.90;;;;;;5051468;28;20445;-69
2023/02/10 09:08:47;;;;;;;32.23;23.57;;;2.10;99.90;;;;;;5052626;28;20392;-70
2023/02/10 09:11:14;;;;;;;33.17;25.37;;;2.20;99.90;;;;;;5055077;28;20401;-69
2023/02/10 09:13:39;;;;;;;26.97;23.00;;;2.30;99.90;;;;;;5072575;28;20760;-70
2023/02/10 09:16:05;;;;;;;34.30;26.63;;;2.30;99.90;;;;;;5072512;28;20424;-69
2023/02/10 09:18:31;;;;;;;35.10;24.90;;;2.40;99.90;;;;;;5072819;28;20512;-70
2023/02/10 09:20:58;;;;;;;33.37;25.37;;;2.60;99.90;;;;;;5057517;28;20171;-70
2023/02/10 09:23:24;;;;;;;37.73;26.47;;;2.70;99.90;;;;;;5053130;28;20549;-70
2023/02/10 09:25:57;;;;;;;32.03;24.27;;;2.80;99.90;;;;;;5052676;28;20502;-70
2023/02/10 09:28:23;;;;;;;33.13;23.80;;;2.80;99.90;;;;;;5053427;28;20568;-70
2023/02/10 09:30:49;;;;;;;36.00;26.00;;;2.70;99.90;;;;;;5050737;28;20445;-70
2023/02/10 09:33:16;;;;;;;30.33;24.30;;;2.60;99.90;;;;;;5051501;28;20499;-70
2023/02/10 09:35:41;;;;;;;38.90;24.67;;;2.50;99.90;;;;;;5052183;28;20212;-70
2023/02/10 09:38:09;;;;;;;33.13;26.03;;;2.40;99.90;;;;;;5053074;28;20492;-70
2023/02/10 09:40:46;;;;;;;33.63;26.13;;;2.40;99.90;;;;;;5056680;28;20173;-71
2023/02/10 09:43:45;;;;;;;31.63;25.63;;;2.50;99.90;;;;;;5052723;28;20952;-70
2023/02/10 09:46:24;;;;;;;34.57;26.10;;;2.60;99.90;;;;;;5051079;28;20449;-70
2023/02/10 09:49:16;;;;;;;35.97;27.77;;;3.00;99.90;;;;;;5061138;28;20388;-70
2023/02/10 09:52:11;;;;;;;34.57;25.73;;;3.30;99.90;;;;;;5064419;28;20741;-69
2023/02/10 09:54:37;;;;;;;34.37;26.37;;;3.50;99.90;;;;;;5059224;28;20807;-68
2023/02/10 09:57:08;;;;;;;31.93;23.60;;;3.60;99.90;;;;;;5073038;28;20405;-69
2023/02/10 09:59:35;;;;;;;65.80;39.30;;;3.50;99.90;;;;;;5072918;28;20381;-68
2023/02/10 10:02:23;;;;;;;32.20;24.93;;;3.50;99.90;;;;;;5073118;28;20800;-68
2023/02/10 10:04:50;;;;;;;31.67;25.23;;;3.70;99.90;;;;;;5073503;28;20828;-70
2023/02/10 10:07:23;;;;;;;31.83;24.07;;;3.80;99.90;;;;;;5073852;28;20461;-69
2023/02/10 10:09:58;;;;;;;33.77;25.23;;;3.90;99.90;;;;;;5074540;28;20384;-70
2023/02/10 10:12:23;;;;;;;33.00;24.67;;;4.00;99.90;;;;;;5070478;28;20404;-70
2023/02/10 10:14:49;;;;;;;35.77;26.40;;;4.00;99.90;;;;;;5055504;28;20432;-69
2023/02/10 10:17:43;;;;;;;35.83;26.00;;;4.00;99.90;;;;;;5055750;28;20182;-70
2023/02/10 10:20:30;;;;;;;36.93;25.90;;;4.20;99.90;;;;;;5055447;28;20471;-70
2023/02/10 10:23:12;;;;;;;33.30;25.10;;;4.40;99.90;;;;;;5058589;28;20393;-71
2023/02/10 10:26:01;;;;;;;39.27;29.03;;;4.30;99.90;;;;;;5058427;28;20460;-70
2023/02/10 10:28:56;;;;;;;45.30;29.70;;;4.20;99.90;;;;;;5035550;28;20432;-70
2023/02/10 10:31:29;;;;;;;42.23;28.00;;;4.30;99.90;;;;;;5056918;28;20433;-71
2023/02/10 10:34:17;;;;;;;37.97;27.70;;;4.40;99.90;;;;;;5055948;28;20431;-71
2023/02/10 10:36:46;;;;;;;38.03;29.40;;;4.40;99.90;;;;;;5056026;28;20412;-70
2023/02/10 10:39:51;;;;;;;41.53;30.30;;;4.50;99.90;;;;;;5056185;28;20408;-69
2023/02/10 10:42:43;;;;;;;40.00;31.50;;;4.40;99.90;;;;;;5056001;28;20432;-70
2023/02/10 10:45:45;;;;;;;42.53;29.27;;;4.60;99.90;;;;;;5055700;28;20460;-71
2023/02/10 10:48:21;;;;;;;37.90;30.20;;;4.70;99.90;;;;;;5051827;28;20483;-70
2023/02/10 10:50:47;;;;;;;41.57;28.80;;;4.60;99.90;;;;;;5056107;28;20382;-70
2023/02/10 10:53:33;;;;;;;41.17;28.23;;;4.80;99.90;;;;;;5058592;28;20462;-70
2023/02/10 10:56:05;;;;;;;36.23;27.07;;;5.10;99.90;;;;;;5056526;28;20205;-71
2023/02/10 10:58:36;;;;;;;36.10;27.93;;;5.30;99.90;;;;;;5054226;28;20389;-70
2023/02/10 11:01:03;;;;;;;35.30;22.60;;;5.60;99.90;;;;;;5057296;28;20416;-71
2023/02/10 11:03:29;;;;;;;39.07;27.27;;;5.80;99.90;;;;;;5058603;28;20420;-71
2023/02/10 11:06:16;;;;;;;37.70;26.60;;;5.90;99.90;;;;;;5058912;28;20459;-71
2023/02/10 11:08:56;;;;;;;36.43;26.97;;;5.90;99.90;;;;;;5056030;28;20539;-70
2023/02/10 11:11:42;;;;;;;35.60;25.23;;;6.20;99.90;;;;;;5054822;28;20877;-70
2023/02/10 11:14:15;;;;;;;36.53;26.10;;;6.30;99.90;;;;;;5054879;28;20395;-70
2023/02/10 11:16:47;;;;;;;31.90;23.13;;;6.50;99.90;;;;;;5055196;28;20387;-71
2023/02/10 11:19:23;;;;;;;34.77;26.73;;;7.30;98.80;;;;;;5055621;28;20437;-71
2023/02/10 11:21:49;;;;;;;36.33;27.07;;;8.60;97.80;;;;;;5067662;28;20417;-70
2023/02/10 11:24:24;;;;;;;34.20;27.37;;;9.30;96.70;;;;;;5075068;28;20465;-70
2023/02/10 11:27:05;;;;;;;34.73;27.10;;;10.30;93.50;;;;;;5073045;28;20426;-71
2023/02/10 11:29:34;;;;;;;41.07;29.20;;;10.00;92.80;;;;;;5074774;28;20804;-72
2023/02/10 11:32:00;;;;;;;34.73;29.70;;;10.40;92.20;;;;;;5073964;28;20411;-71
2023/02/10 11:34:44;;;;;;;33.37;27.40;;;11.30;91.00;;;;;;5075558;28;20470;-70
2023/02/10 11:37:13;;;;;;;30.87;24.47;;;11.50;90.60;;;;;;5075195;28;20388;-71
2023/02/10 11:39:43;;;;;;;32.80;25.23;;;11.80;87.90;;;;;;5075103;28;20404;-71
2023/02/10 11:42:22;;;;;;;33.10;27.23;;;12.30;86.00;;;;;;5055666;28;20504;-72
2023/02/10 11:45:00;;;;;;;32.30;27.30;;;11.90;84.60;;;;;;5055036;28;20927;-72
2023/02/10 11:47:29;;;;;;;33.37;26.70;;;12.00;83.60;;;;;;5054601;28;20413;-71
2023/02/10 11:49:55;;;;;;;30.63;25.80;;;12.30;80.80;;;;;;5069509;28;20906;-71
2023/02/10 11:52:23;;;;;;;33.13;25.77;;;11.40;78.90;;;;;;5074272;28;20392;-71
2023/02/10 11:54:50;;;;;;;32.40;26.13;;;10.10;82.40;;;;;;5088917;23;20451;-70
2023/02/10 12:00:33;;;;;;;30.60;25.83;;;11.20;82.60;;;;;;5012934;28;21000;-70
2023/02/10 12:03:11;;;;;;;33.13;27.60;;;13.00;78.60;;;;;;5013920;28;20453;-71
2023/02/10 12:06:13;;;;;;;32.13;25.60;;;13.30;76.60;;;;;;5014372;28;20490;-71
2023/02/10 12:08:51;;;;;;;36.10;27.63;;;13.80;73.90;;;;;;5014387;28;20404;-70
2023/02/10 12:11:44;;;;;;;31.93;26.70;;;12.70;74.40;;;;;;5013744;28;20892;-70
2023/02/10 12:14:29;;;;;;;32.30;24.60;;;13.80;74.20;;;;;;5013955;28;20387;-71
2023/02/10 12:17:18;;;;;;;27.20;24.13;;;14.30;67.60;;;;;;5012791;28;20918;-70
2023/02/10 12:19:48;;;;;;;30.80;25.70;;;12.80;69.70;;;;;;5002172;28;20421;-68
2023/02/10 12:22:27;;;;;;;28.70;24.67;;;12.60;70.60;;;;;;4995603;28;20419;-67
2023/02/10 12:25:28;;;;;;;28.00;23.00;;;12.50;70.80;;;;;;5012821;28;20453;-69
2023/02/10 12:28:01;;;;;;;28.33;24.57;;;14.10;69.80;;;;;;5013550;28;20491;-72
2023/02/10 12:30:46;;;;;;;28.73;25.60;;;15.60;64.00;;;;;;5013603;28;20381;-74
2023/02/10 12:33:49;;;;;;;29.93;23.07;;;15.00;61.70;;;;;;5012283;28;20436;-74
2023/02/10 12:36:39;;;;;;;28.27;23.87;;;14.60;62.80;;;;;;5012891;28;20421;-71
2023/02/10 12:39:29;;;;;;;28.53;24.17;;;15.60;61.60;;;;;;5013589;28;20529;-73
2023/02/10 12:42:10;;;;;;;27.47;24.40;;;16.50;58.40;;;;;;5013806;28;20390;-71
2023/02/10 12:45:04;;;;;;;29.97;25.63;;;18.00;57.20;;;;;;5012354;28;20465;-72
2023/02/10 12:47:43;;;;;;;26.17;22.73;;;19.20;54.00;;;;;;5013835;28;20415;-72